Latest Weather Observations for Ulladulla

IDN60901

Issued at 7:02 am EDT Thursday 29 January 2015 (issued every 10 minutes, with the page automatically refreshed every 10 minutes)

About weather observations | Map of Canberra area stations | Latest observations for Canberra area | Other Formats
Station Details ID: 069138 Name: ULLADULLA AWS Lat: -35.36 Lon: 150.48 Height: 35.7 m
Data from the previous 72 hours. | See also: Recent months at Ulladulla
Date/Time
EDT
Tmp

°C
App
Tmp
°C
Dew
Point
°C
Rel
Hum
%
Delta-T

°C
Wind Press
QNH
hPa
Press
MSL
hPa
Rain
since
9 am
mm
Dir
 
Spd
km/h
Gust
km/h
Spd
kts
Gust
kts
29/07:00am 14.4 10.3 8.6 68 2.9 SSW 20 33 11 18 1013.5 1013.4 10.4
29/06:30am 14.0 9.8 8.4 69 2.8 SW 20 32 11 17 1013.3 1013.2 10.4
29/05:30am 13.8 10.7 8.8 72 2.5 SW 15 24 8 13 1013.3 1013.2 10.4
29/05:00am 14.0 10.7 9.4 74 2.4 SW 17 24 9 13 1013.3 1013.2 10.4
29/04:30am 14.1 10.5 9.7 75 2.3 SW 19 32 10 17 1013.2 1013.1 10.4
29/04:00am 14.2 10.7 10.2 77 2.1 SW 19 30 10 16 1013.3 1013.2 10.4
29/03:30am 14.3 10.8 10.9 80 1.8 SW 20 35 11 19 1013.4 1013.3 10.4
29/03:00am 14.2 10.8 11.4 83 1.5 SW 20 30 11 16 1013.6 1013.5 10.4
29/02:30am 14.1 11.0 11.6 85 1.3 SW 19 28 10 15 1013.9 1013.8 10.4
29/02:00am 14.1 11.5 12.1 88 1.1 SW 17 26 9 14 1014.2 1014.1 10.4
29/01:30am 13.7 11.2 12.3 91 0.8 SW 17 28 9 15 1014.6 1014.5 10.4
29/01:00am 14.0 12.1 13.1 94 0.5 SW 15 22 8 12 1015.1 1015.0 10.4
29/12:30am 14.0 11.4 13.2 95 0.4 SW 19 30 10 16 1015.4 1015.3 10.4
29/12:00am 14.2 12.6 13.9 98 0.2 SW 15 24 8 13 1015.3 1015.2 10.4
 
Date/Time
EDT
Tmp

°C
App
Tmp
°C
Dew
Point
°C
Rel
Hum
%
Delta-T

°C
Wind Press
QNH
hPa
Press
MSL
hPa
Rain
since
9 am
mm
Dir
 
Spd
km/h
Gust
km/h
Spd
kts
Gust
kts
28/11:30pm 14.7 12.9 14.4 98 0.2 SW 17 26 9 14 1015.6 1015.5 9.8
28/11:00pm 14.8 12.1 14.5 98 0.2 SW 22 35 12 19 1015.8 1015.7 7.4
28/10:30pm 14.9 12.5 14.4 97 0.3 SW 20 35 11 19 1015.8 1015.7 6.8
28/10:00pm 15.1 13.7 14.5 96 0.3 SW 15 24 8 13 1015.7 1015.6 5.0
28/09:30pm 15.6 13.0 14.8 95 0.5 SW 22 33 12 18 1015.8 1015.7 5.0
28/09:00pm 16.8 13.7 13.3 80 2.0 SSW 22 37 12 20 1015.6 1015.5 2.8
28/08:30pm 16.8 15.4 13.3 80 2.0 SW 13 20 7 11 1015.3 1015.2 2.8
28/08:00pm 17.2 15.8 13.5 79 2.1 SW 13 22 7 12 1015.2 1015.1 2.8
28/07:30pm 17.6 16.8 13.9 79 2.1 SW 11 22 6 12 1015.1 1015.0 2.8
28/07:00pm 18.8 18.6 14.7 77 2.4 SW 9 19 5 10 1015.0 1014.9 2.8
28/06:30pm 19.3 15.7 14.1 72 3.0 S 26 35 14 19 1014.8 1014.7 2.8
28/06:00pm 19.7 16.4 13.9 69 3.3 S 24 37 13 20 1014.8 1014.7 2.8
28/05:30pm 19.4 15.4 13.1 67 3.6 S 26 39 14 21 1014.8 1014.7 2.8
28/05:00pm 19.8 15.6 13.5 67 3.6 S 28 35 15 19 1014.8 1014.7 2.8
28/04:30pm 19.5 16.6 14.1 71 3.1 S 22 32 12 17 1014.9 1014.8 2.8
28/04:00pm 19.2 16.5 12.9 67 3.6 S 19 24 10 13 1015.0 1014.9 2.8
28/03:30pm 17.9 15.4 14.2 79 2.1 SSE 20 30 11 16 1015.2 1015.1 2.8
28/03:00pm 18.9 18.1 15.0 78 2.3 SSW 13 24 7 13 1015.1 1015.0 2.6
28/02:30pm 16.9 14.0 15.2 90 1.0 SSW 24 41 13 22 1015.5 1015.4 2.6
28/02:09pm 19.4 16.1 14.9 75 2.6 S 26 56 14 30 1015.4 1015.3 2.2
28/02:00pm 20.3 18.5 15.5 74 2.8 SSW 19 26 10 14 1015.4 1015.3 2.2
28/01:30pm 20.7 19.5 15.0 70 3.4 SSW 15 20 8 11 1015.6 1015.5 2.2
28/01:00pm 19.3 18.8 14.8 75 2.6 SW 11 20 6 11 1015.8 1015.7 2.2
28/12:30pm 17.9 16.8 14.4 80 2.0 S 13 19 7 10 1016.0 1015.9 2.2
28/12:00pm 17.0 13.2 14.6 86 1.4 SSE 28 39 15 21 1016.2 1016.1 2.2
28/11:30am 18.3 15.4 15.0 81 1.9 S 24 32 13 17 1016.0 1015.9 2.2
28/11:00am 17.6 13.9 15.0 85 1.5 S 28 37 15 20 1016.0 1015.9 2.2
28/10:30am 18.7 13.4 15.4 81 1.9 S 37 46 20 25 1015.8 1015.7 2.2
28/10:00am 17.9 13.6 15.5 86 1.4 S 32 54 17 29 1015.3 1015.2 2.2
28/09:58am 18.0 13.6 15.6 86 1.4 S 33 54 18 29 1015.3 1015.2 2.2
28/09:30am 17.3 15.6 16.2 93 0.7 SSW 20 41 11 22 1015.2 1015.1 2.2
28/09:00am 16.8 15.3 14.3 85 1.4 SSW 15 24 8 13 1015.3 1015.2 2.6
28/08:30am 16.7 14.4 14.2 85 1.4 SW 19 30 10 16 1014.9 1014.8 2.6
28/08:00am 17.2 14.8 13.7 80 2.0 SW 19 30 10 16 1014.6 1014.5 2.4
28/07:30am 17.0 14.5 13.5 80 2.0 SW 19 33 10 18 1014.4 1014.3 2.4
28/07:00am 16.6 14.5 13.5 82 1.7 SW 17 26 9 14 1014.0 1013.9 2.4
28/06:30am 16.4 13.9 13.5 83 1.6 SW 19 30 10 16 1013.7 1013.6 2.4
28/06:00am 16.6 14.5 13.5 82 1.7 SW 17 28 9 15 1013.5 1013.4 2.4
28/05:30am 16.7 14.2 13.6 82 1.7 SW 19 28 10 15 1013.5 1013.4 2.4
28/05:00am 16.6 14.2 13.7 83 1.6 SW 19 30 10 16 1013.3 1013.2 2.4
28/04:30am 16.6 14.2 13.7 83 1.6 SW 19 32 10 17 1013.5 1013.4 2.4
28/04:00am 16.5 14.9 14.0 85 1.4 SW 15 24 8 13 1013.6 1013.5 2.4
28/03:30am 16.5 14.6 14.2 86 1.3 SW 17 24 9 13 1013.7 1013.6 2.4
28/03:00am 16.8 15.4 14.6 87 1.3 SW 15 22 8 12 1013.9 1013.8 2.4
28/02:30am 17.3 15.7 14.9 86 1.4 SW 17 24 9 13 1014.0 1013.9 2.4
28/02:00am 17.6 16.4 15.0 85 1.5 SW 15 32 8 17 1014.2 1014.1 2.4
28/01:30am 18.1 14.2 15.5 85 1.5 S 30 39 16 21 1014.4 1014.3 2.4
28/01:00am 18.6 14.6 15.1 80 2.0 S 30 39 16 21 1014.5 1014.4 2.4
28/12:30am 18.7 15.6 15.6 82 1.8 S 26 37 14 20 1014.7 1014.6 2.4
28/12:00am 18.8 16.1 15.7 82 1.8 S 24 32 13 17 1014.7 1014.6 2.4
 
Date/Time
EDT
Tmp

°C
App
Tmp
°C
Dew
Point
°C
Rel
Hum
%
Delta-T

°C
Wind Press
QNH
hPa
Press
MSL
hPa
Rain
since
9 am
mm
Dir
 
Spd
km/h
Gust
km/h
Spd
kts
Gust
kts
27/11:30pm 19.2 16.8 15.3 78 2.3 S 22 30 12 16 1014.9 1014.8 2.4
27/11:00pm 19.6 16.9 14.6 73 2.9 SSE 22 35 12 19 1015.0 1014.9 2.4
27/10:30pm 19.5 16.6 14.1 71 3.1 SSE 22 32 12 17 1015.1 1015.0 2.4
27/10:00pm 19.4 16.9 15.1 76 2.5 SSE 22 32 12 17 1014.9 1014.8 2.4
27/09:30pm 19.3 16.9 15.4 78 2.3 SSE 22 33 12 18 1014.7 1014.6 2.4
27/09:00pm 19.2 17.3 15.3 78 2.3 SSE 19 26 10 14 1014.7 1014.6 2.4
27/08:30pm 17.9 18.0 16.6 92 0.8 S 11 20 6 11 1014.4 1014.3 2.4
27/08:00pm 17.4 17.9 16.6 95 0.5 SW 9 17 5 9 1014.4 1014.3 2.4
27/07:30pm 17.4 17.9 16.6 95 0.5 SW 9 19 5 10 1014.0 1013.9 2.4
27/07:00pm 17.5 17.8 16.9 96 0.4 SW 11 17 6 9 1013.9 1013.8 2.4
27/06:30pm 17.9 18.6 17.1 95 0.5 SSW 9 15 5 8 1013.6 1013.5 2.4
27/06:00pm 17.9 20.3 16.9 94 0.6 CALM 0 6 0 3 1013.7 1013.6 2.4
27/05:30pm 17.9 19.5 16.9 94 0.6 W 4 7 2 4 1013.7 1013.6 2.4
27/05:00pm 17.9 18.3 16.2 90 1.0 SW 9 17 5 9 1013.8 1013.7 1.8
27/04:30pm 18.0 16.7 15.8 87 1.3 SW 17 28 9 15 1013.7 1013.6 1.6
27/04:00pm 18.4 17.0 15.6 84 1.7 SSW 17 22 9 12 1014.1 1014.0 1.6
27/03:30pm 18.4 17.0 15.6 84 1.7 SSW 17 22 9 12 1014.3 1014.2 1.6
27/03:00pm 19.0 18.0 16.6 86 1.4 SSW 17 22 9 12 1014.5 1014.4 1.6
27/02:30pm 18.0 16.8 16.2 89 1.1 SSW 17 24 9 13 1014.8 1014.7 1.6
27/02:00pm 17.8 16.2 16.0 89 1.1 SSW 19 26 10 14 1014.8 1014.7 1.6
27/01:30pm 17.6 15.9 15.8 89 1.1 SSW 19 28 10 15 1015.0 1014.9 1.6
27/01:00pm 17.4 16.7 16.3 93 0.7 SSW 15 22 8 12 1015.3 1015.2 1.6
27/12:30pm 17.5 16.6 16.9 96 0.4 SSW 17 22 9 12 1015.5 1015.4 1.6
27/12:00pm 17.7 18.2 17.5 99 0.1 SSW 11 20 6 11 1015.4 1015.3 1.6
27/11:30am 17.1 17.4 17.1 100 0.0 SW 11 17 6 9 1015.6 1015.5 1.6
27/11:00am 16.3 16.3 16.3 100 0.0 SW 11 15 6 8 1015.8 1015.7 1.6
27/10:30am 16.3 16.3 16.3 100 0.0 SW 11 15 6 8 1015.7 1015.6 1.4
27/10:00am 15.9 16.2 15.9 100 0.0 SW 9 13 5 7 1015.7 1015.6 1.2
27/09:30am 16.2 16.2 16.2 100 0.0 SSW 11 19 6 10 1015.6 1015.5 1.0
27/09:00am 15.7 15.9 15.7 100 0.0 SSW 9 15 5 8 1015.8 1015.7 11.8
27/08:30am 15.7 15.9 15.7 100 0.0 WSW 9 15 5 8 1015.7 1015.6 10.8
27/08:00am 15.6 15.4 15.6 100 0.0 SW 11 17 6 9 1015.4 1015.3 10.6
27/07:30am 15.6 15.4 15.6 100 0.0 SW 11 17 6 9 1015.0 1014.9 10.6
27/07:00am 15.7 15.9 15.7 100 0.0 SW 9 15 5 8 1014.8 1014.7 10.6
27/06:30am 15.8 15.6 15.8 100 0.0 SW 11 19 6 10 1014.6 1014.5 10.6
27/06:00am 15.6 15.4 15.6 100 0.0 SW 11 15 6 8 1014.6 1014.5 10.4
27/05:30am 15.6 15.7 15.6 100 0.0 SW 9 20 5 11 1014.6 1014.5 10.2
27/05:00am 15.6 15.7 15.6 100 0.0 SW 9 17 5 9 1014.6 1014.5 9.8
27/04:30am 15.6 15.0 15.6 100 0.0 SW 13 19 7 10 1014.6 1014.5 9.2
27/04:00am 15.6 15.7 15.4 99 0.1 SW 9 15 5 8 1014.8 1014.7 9.2
27/03:30am 15.7 15.8 15.5 99 0.1 SW 9 15 5 8 1014.9 1014.8 8.8
27/03:00am 16.0 16.6 15.7 98 0.2 SW 7 13 4 7 1015.1 1015.0 8.6
27/02:30am 16.1 16.3 15.8 98 0.2 WSW 9 15 5 8 1015.2 1015.1 8.0
27/02:00am 16.2 17.0 15.9 98 0.2 WSW 6 7 3 4 1015.4 1015.3 7.8
27/01:30am 16.1 16.7 15.8 98 0.2 WSW 7 15 4 8 1015.8 1015.7 7.4
27/01:00am 16.1 16.7 15.9 99 0.1 S 7 17 4 9 1016.0 1015.9 7.2
27/12:30am 16.0 17.2 15.8 99 0.1 WSW 4 9 2 5 1016.2 1016.1 6.4
27/12:00am 15.8 16.5 15.6 99 0.1 W 6 9 3 5 1016.4 1016.3 5.0
 
Date/Time
EDT
Tmp

°C
App
Tmp
°C
Dew
Point
°C
Rel
Hum
%
Delta-T

°C
Wind Press
QNH
hPa
Press
MSL
hPa
Rain
since
9 am
mm
Dir
 
Spd
km/h
Gust
km/h
Spd
kts
Gust
kts
26/11:30pm 15.8 15.9 15.5 98 0.2 WSW 9 19 5 10 1016.6 1016.5 3.8
26/11:00pm 15.9 17.0 15.6 98 0.2 WSW 4 7 2 4 1016.6 1016.5 3.4
26/10:30pm 15.9 15.7 15.6 98 0.2 W 11 15 6 8 1016.9 1016.8 3.2
26/10:00pm 16.0 16.8 15.8 99 0.1 W 6 11 3 6 1016.8 1016.7 2.6
26/09:30pm 15.9 16.1 15.7 99 0.1 WSW 9 13 5 7 1016.6 1016.5 2.2
26/09:00pm 15.8 16.3 15.5 98 0.2 WSW 7 13 4 7 1016.5 1016.4 2.2
26/08:30pm 15.8 16.3 15.5 98 0.2 WSW 7 13 4 7 1016.4 1016.3 1.8
26/08:00pm 15.7 16.1 15.4 98 0.2 SW 7 13 4 7 1016.3 1016.2 1.6
26/07:30pm 15.6 15.2 15.1 97 0.3 WSW 11 15 6 8 1016.0 1015.9 0.4
26/07:00pm 15.5 15.0 14.9 96 0.3 WSW 11 17 6 9 1015.8 1015.7 0.4
26/06:30pm 15.8 15.6 14.8 94 0.6 WSW 9 13 5 7 1015.6 1015.5 0.4
26/06:00pm 16.3 15.3 14.5 89 1.0 SSW 13 20 7 11 1015.4 1015.3 0.2
26/05:30pm 16.8 16.1 14.4 86 1.4 SSW 11 17 6 9 1015.3 1015.2 0.2
26/05:00pm 16.6 15.6 14.6 88 1.1 S 13 20 7 11 1015.3 1015.2 0.2
26/04:30pm 16.4 15.3 14.2 87 1.3 S 13 17 7 9 1015.6 1015.5 0.2
26/04:00pm 16.9 15.1 13.4 80 2.0 S 15 22 8 12 1015.5 1015.4 0.0
26/03:30pm 17.5 15.6 13.0 75 2.5 SSE 15 22 8 12 1015.5 1015.4 0.0
26/03:00pm 18.0 15.7 13.1 73 2.8 S 17 28 9 15 1015.3 1015.2 0.0
26/02:30pm 18.0 15.5 12.2 69 3.2 S 17 32 9 17 1015.3 1015.2 0.0
26/02:00pm 18.3 15.2 12.3 68 3.3 S 20 28 11 15 1015.3 1015.2 0.0
26/01:30pm 18.3 15.1 11.8 66 3.6 S 20 30 11 16 1015.4 1015.3 0.0
26/01:00pm 18.4 14.2 11.2 63 3.9 S 24 30 13 16 1015.5 1015.4 0.0
26/12:30pm 18.4 15.0 11.2 63 3.9 S 20 32 11 17 1015.6 1015.5 0.0
26/12:00pm 18.4 15.0 11.2 63 3.9 S 20 28 11 15 1015.7 1015.6 0.0
26/11:30am 18.5 13.9 11.1 62 4.0 S 26 33 14 18 1015.4 1015.3 0.0
26/11:00am 18.5 14.4 11.6 64 3.8 S 24 33 13 18 1015.4 1015.3 0.0
26/10:30am 18.7 14.9 11.3 62 4.0 S 22 30 12 16 1015.3 1015.2 0.0
26/10:00am 19.0 14.3 10.8 59 4.4 S 26 30 14 16 1015.2 1015.1 0.0
26/09:30am 18.8 14.5 10.9 60 4.3 S 24 33 13 18 1015.1 1015.0 0.0
26/09:00am 18.4 13.6 10.3 59 4.3 S 26 33 14 18 1015.1 1015.0 0.0
26/08:30am 18.4 14.7 11.5 64 3.8 S 22 32 12 17 1014.8 1014.7 0.0
26/08:00am 18.2 14.8 11.3 64 3.8 S 20 33 11 18 1014.5 1014.4 0.0
26/07:30am 18.3 14.7 11.8 66 3.6 S 22 30 12 16 1014.2 1014.1 0.0

Latest Capital City Observations: Canberra | Sydney | Melbourne | Brisbane | Adelaide | Perth | Hobart | Darwin

Other Formats:

Comma delimited format used in spreadsheet applications
http://www.bom.gov.au/fwo/IDN60903/IDN60903.94938.axf

JavaScript Object Notation format (JSON) in row-major order
http://www.bom.gov.au/fwo/IDN60903/IDN60903.94938.json